East Enosburg, Vermont
Current Conditions -  °F | °C
As of 9:55 AM on Friday 28 Nov 2014 (Local Time) from KFSO Reporting Station
Overcast Overcast  
Wind Chill: 19°   Ceiling: 4000
Heat Index: 25°   Visibility: 10mi
Dew Point: 17°   Wind: 5mph
Humidity: 72%   Direction: 280°W
Pressure: 30.11"   Gusts: NA
Location:  44.8764°N, 72.758°W
Report Text: KFSO 281455Z AUTO 28004KT 10SM OVC040 M04/M08 A3011 RMK AO2 T10401084
Loading
Personal Weather Stations






























Interactive Weather Map New forecast layout! Learn more

10-Day Weather Forecast

Advertisements
Track Severe Weather on mobile